sensor_id;sensor_type;location;lat;lon;timestamp;P1;durP1;ratioP1;P2;durP2;ratioP2
70744;SDS011;59284;31.390;34.904;2023-04-05T00:00:41;22.30;;;4.60;;
70744;SDS011;59284;31.390;34.904;2023-04-05T00:03:07;29.58;;;4.88;;
70744;SDS011;59284;31.390;34.904;2023-04-05T00:05:34;36.42;;;6.90;;
70744;SDS011;59284;31.390;34.904;2023-04-05T00:08:01;44.60;;;7.27;;
70744;SDS011;59284;31.390;34.904;2023-04-05T00:10:27;32.25;;;8.48;;
70744;SDS011;59284;31.390;34.904;2023-04-05T00:12:54;29.20;;;8.20;;
70744;SDS011;59284;31.390;34.904;2023-04-05T00:15:20;38.30;;;8.43;;
70744;SDS011;59284;31.390;34.904;2023-04-05T00:17:46;29.07;;;8.17;;
70744;SDS011;59284;31.390;34.904;2023-04-05T00:20:12;35.42;;;8.25;;
70744;SDS011;59284;31.390;34.904;2023-04-05T00:22:39;42.78;;;8.13;;
70744;SDS011;59284;31.390;34.904;2023-04-05T00:25:09;30.17;;;8.10;;
70744;SDS011;59284;31.390;34.904;2023-04-05T00:27:35;39.20;;;8.40;;
70744;SDS011;59284;31.390;34.904;2023-04-05T00:30:00;31.58;;;7.80;;
70744;SDS011;59284;31.390;34.904;2023-04-05T00:32:26;34.78;;;7.20;;
70744;SDS011;59284;31.390;34.904;2023-04-05T00:34:52;38.03;;;8.03;;
70744;SDS011;59284;31.390;34.904;2023-04-05T00:37:18;49.15;;;7.60;;
70744;SDS011;59284;31.390;34.904;2023-04-05T00:39:44;41.42;;;7.82;;
70744;SDS011;59284;31.390;34.904;2023-04-05T00:42:09;31.77;;;6.87;;
70744;SDS011;59284;31.390;34.904;2023-04-05T00:44:35;39.60;;;6.88;;
70744;SDS011;59284;31.390;34.904;2023-04-05T00:47:02;39.53;;;7.37;;
70744;SDS011;59284;31.390;34.904;2023-04-05T00:49:29;30.92;;;7.22;;
70744;SDS011;59284;31.390;34.904;2023-04-05T00:51:57;36.75;;;7.32;;
70744;SDS011;59284;31.390;34.904;2023-04-05T00:54:26;29.80;;;6.50;;
70744;SDS011;59284;31.390;34.904;2023-04-05T00:56:56;39.22;;;7.20;;
70744;SDS011;59284;31.390;34.904;2023-04-05T00:59:26;27.87;;;6.43;;
70744;SDS011;59284;31.390;34.904;2023-04-05T01:02:00;34.63;;;7.43;;
70744;SDS011;59284;31.390;34.904;2023-04-05T01:04:29;27.60;;;6.20;;
70744;SDS011;59284;31.390;34.904;2023-04-05T01:09:58;32.33;;;7.00;;
70744;SDS011;59284;31.390;34.904;2023-04-05T01:12:26;35.17;;;6.17;;
70744;SDS011;59284;31.390;34.904;2023-04-05T01:14:54;29.27;;;5.82;;
70744;SDS011;59284;31.390;34.904;2023-04-05T01:17:21;31.70;;;6.68;;
70744;SDS011;59284;31.390;34.904;2023-04-05T01:19:49;34.88;;;5.85;;
70744;SDS011;59284;31.390;34.904;2023-04-05T01:22:24;28.17;;;6.63;;
70744;SDS011;59284;31.390;34.904;2023-04-05T01:30:40;33.40;;;6.03;;
70744;SDS011;59284;31.390;34.904;2023-04-05T01:38:22;21.93;;;4.33;;
70744;SDS011;59284;31.390;34.904;2023-04-05T01:40:49;25.58;;;4.03;;
70744;SDS011;59284;31.390;34.904;2023-04-05T01:43:16;29.92;;;5.38;;
70744;SDS011;59284;31.390;34.904;2023-04-05T01:45:43;25.42;;;3.92;;
70744;SDS011;59284;31.390;34.904;2023-04-05T01:48:09;18.50;;;3.28;;
70744;SDS011;59284;31.390;34.904;2023-04-05T01:50:36;24.17;;;3.30;;
70744;SDS011;59284;31.390;34.904;2023-04-05T01:53:01;24.48;;;2.90;;
70744;SDS011;59284;31.390;34.904;2023-04-05T01:55:27;14.38;;;2.55;;
70744;SDS011;59284;31.390;34.904;2023-04-05T01:57:53;17.03;;;2.30;;
70744;SDS011;59284;31.390;34.904;2023-04-05T02:00:20;11.27;;;2.80;;
70744;SDS011;59284;31.390;34.904;2023-04-05T02:02:46;15.60;;;2.33;;
70744;SDS011;59284;31.390;34.904;2023-04-05T02:05:12;14.30;;;2.17;;
70744;SDS011;59284;31.390;34.904;2023-04-05T02:07:38;14.53;;;1.70;;
70744;SDS011;59284;31.390;34.904;2023-04-05T02:10:04;14.23;;;2.25;;
70744;SDS011;59284;31.390;34.904;2023-04-05T02:12:30;16.80;;;2.17;;
70744;SDS011;59284;31.390;34.904;2023-04-05T02:14:56;19.27;;;1.70;;
70744;SDS011;59284;31.390;34.904;2023-04-05T02:17:23;17.02;;;2.53;;
70744;SDS011;59284;31.390;34.904;2023-04-05T02:19:49;9.18;;;1.20;;
70744;SDS011;59284;31.390;34.904;2023-04-05T02:22:17;9.47;;;1.80;;
70744;SDS011;59284;31.390;34.904;2023-04-05T02:24:43;11.38;;;1.13;;
70744;SDS011;59284;31.390;34.904;2023-04-05T02:27:09;10.18;;;1.42;;
70744;SDS011;59284;31.390;34.904;2023-04-05T02:29:35;5.80;;;0.88;;
70744;SDS011;59284;31.390;34.904;2023-04-05T02:32:01;7.13;;;1.33;;
70744;SDS011;59284;31.390;34.904;2023-04-05T02:34:27;9.02;;;1.13;;
70744;SDS011;59284;31.390;34.904;2023-04-05T02:36:52;12.25;;;1.10;;
70744;SDS011;59284;31.390;34.904;2023-04-05T02:39:18;9.37;;;1.20;;
70744;SDS011;59284;31.390;34.904;2023-04-05T02:41:45;12.57;;;1.02;;
70744;SDS011;59284;31.390;34.904;2023-04-05T02:44:11;12.13;;;1.58;;
70744;SDS011;59284;31.390;34.904;2023-04-05T02:46:37;9.88;;;1.00;;
70744;SDS011;59284;31.390;34.904;2023-04-05T02:49:03;6.10;;;0.97;;
70744;SDS011;59284;31.390;34.904;2023-04-05T02:51:29;9.70;;;1.92;;
70744;SDS011;59284;31.390;34.904;2023-04-05T02:53:54;7.73;;;1.00;;
70744;SDS011;59284;31.390;34.904;2023-04-05T02:56:20;12.70;;;1.00;;
70744;SDS011;59284;31.390;34.904;2023-04-05T02:58:46;10.93;;;1.48;;
70744;SDS011;59284;31.390;34.904;2023-04-05T03:01:14;12.17;;;1.30;;
70744;SDS011;59284;31.390;34.904;2023-04-05T03:03:42;15.65;;;1.67;;
70744;SDS011;59284;31.390;34.904;2023-04-05T03:06:08;16.35;;;1.98;;
70744;SDS011;59284;31.390;34.904;2023-04-05T03:08:37;9.82;;;1.40;;
70744;SDS011;59284;31.390;34.904;2023-04-05T03:11:08;13.15;;;2.25;;
70744;SDS011;59284;31.390;34.904;2023-04-05T03:13:35;21.33;;;2.77;;
70744;SDS011;59284;31.390;34.904;2023-04-05T03:16:01;30.02;;;3.30;;
70744;SDS011;59284;31.390;34.904;2023-04-05T03:18:27;25.05;;;2.70;;
70744;SDS011;59284;31.390;34.904;2023-04-05T03:20:54;18.83;;;2.75;;
70744;SDS011;59284;31.390;34.904;2023-04-05T03:23:30;30.05;;;3.78;;
70744;SDS011;59284;31.390;34.904;2023-04-05T03:28:22;20.60;;;3.80;;
70744;SDS011;59284;31.390;34.904;2023-04-05T03:30:48;26.80;;;3.50;;
70744;SDS011;59284;31.390;34.904;2023-04-05T03:33:14;22.57;;;3.60;;
70744;SDS011;59284;31.390;34.904;2023-04-05T03:35:40;21.13;;;3.30;;
70744;SDS011;59284;31.390;34.904;2023-04-05T03:38:05;24.00;;;3.58;;
70744;SDS011;59284;31.390;34.904;2023-04-05T03:40:31;24.30;;;3.30;;
70744;SDS011;59284;31.390;34.904;2023-04-05T03:42:57;24.17;;;3.00;;
70744;SDS011;59284;31.390;34.904;2023-04-05T03:45:23;25.33;;;3.37;;
70744;SDS011;59284;31.390;34.904;2023-04-05T03:47:49;27.73;;;3.30;;
70744;SDS011;59284;31.390;34.904;2023-04-05T03:50:15;19.50;;;3.05;;
70744;SDS011;59284;31.390;34.904;2023-04-05T03:52:40;22.67;;;3.83;;
70744;SDS011;59284;31.390;34.904;2023-04-05T03:55:06;26.50;;;3.55;;
70744;SDS011;59284;31.390;34.904;2023-04-05T03:57:32;12.30;;;1.98;;
70744;SDS011;59284;31.390;34.904;2023-04-05T03:59:58;18.23;;;2.07;;
70744;SDS011;59284;31.390;34.904;2023-04-05T04:02:24;16.67;;;2.10;;
70744;SDS011;59284;31.390;34.904;2023-04-05T04:04:50;14.98;;;2.17;;
70744;SDS011;59284;31.390;34.904;2023-04-05T04:07:17;19.65;;;2.15;;
70744;SDS011;59284;31.390;34.904;2023-04-05T04:09:43;19.40;;;1.93;;
70744;SDS011;59284;31.390;34.904;2023-04-05T04:12:08;14.65;;;1.98;;
70744;SDS011;59284;31.390;34.904;2023-04-05T04:14:35;21.83;;;2.47;;
70744;SDS011;59284;31.390;34.904;2023-04-05T04:17:01;27.95;;;2.90;;
70744;SDS011;59284;31.390;34.904;2023-04-05T04:19:27;24.23;;;3.72;;
70744;SDS011;59284;31.390;34.904;2023-04-05T04:21:53;22.07;;;3.07;;
70744;SDS011;59284;31.390;34.904;2023-04-05T04:24:20;18.55;;;2.65;;
70744;SDS011;59284;31.390;34.904;2023-04-05T04:26:46;21.73;;;2.70;;
70744;SDS011;59284;31.390;34.904;2023-04-05T04:29:12;18.00;;;2.97;;
70744;SDS011;59284;31.390;34.904;2023-04-05T04:31:41;12.55;;;2.47;;
70744;SDS011;59284;31.390;34.904;2023-04-05T04:34:10;24.88;;;3.42;;
70744;SDS011;59284;31.390;34.904;2023-04-05T04:36:38;23.65;;;3.70;;
70744;SDS011;59284;31.390;34.904;2023-04-05T04:39:06;21.20;;;3.10;;
70744;SDS011;59284;31.390;34.904;2023-04-05T04:41:34;24.90;;;3.47;;
70744;SDS011;59284;31.390;34.904;2023-04-05T04:44:01;22.25;;;3.28;;
70744;SDS011;59284;31.390;34.904;2023-04-05T04:46:27;29.33;;;2.90;;
70744;SDS011;59284;31.390;34.904;2023-04-05T04:49:01;29.83;;;3.63;;
70744;SDS011;59284;31.390;34.904;2023-04-05T04:51:32;32.42;;;3.83;;
70744;SDS011;59284;31.390;34.904;2023-04-05T04:53:59;29.60;;;3.97;;
70744;SDS011;59284;31.390;34.904;2023-04-05T04:56:25;33.63;;;3.67;;
70744;SDS011;59284;31.390;34.904;2023-04-05T04:58:54;26.65;;;3.58;;
70744;SDS011;59284;31.390;34.904;2023-04-05T05:01:20;35.15;;;3.97;;
70744;SDS011;59284;31.390;34.904;2023-04-05T05:03:47;35.97;;;4.23;;
70744;SDS011;59284;31.390;34.904;2023-04-05T05:06:16;37.00;;;5.15;;
70744;SDS011;59284;31.390;34.904;2023-04-05T05:08:44;26.38;;;3.78;;
70744;SDS011;59284;31.390;34.904;2023-04-05T05:11:11;34.97;;;4.25;;
70744;SDS011;59284;31.390;34.904;2023-04-05T05:13:37;26.80;;;5.00;;
70744;SDS011;59284;31.390;34.904;2023-04-05T05:16:07;31.30;;;4.83;;
70744;SDS011;59284;31.390;34.904;2023-04-05T05:18:33;39.70;;;3.78;;
70744;SDS011;59284;31.390;34.904;2023-04-05T05:20:59;41.40;;;5.13;;
70744;SDS011;59284;31.390;34.904;2023-04-05T05:23:24;37.87;;;4.07;;
70744;SDS011;59284;31.390;34.904;2023-04-05T05:25:55;21.95;;;2.88;;
70744;SDS011;59284;31.390;34.904;2023-04-05T05:28:23;37.88;;;3.20;;
70744;SDS011;59284;31.390;34.904;2023-04-05T05:30:50;43.20;;;4.50;;
70744;SDS011;59284;31.390;34.904;2023-04-05T05:33:15;46.40;;;5.13;;
70744;SDS011;59284;31.390;34.904;2023-04-05T05:35:42;29.90;;;3.72;;
70744;SDS011;59284;31.390;34.904;2023-04-05T05:38:08;33.75;;;3.40;;
70744;SDS011;59284;31.390;34.904;2023-04-05T05:40:34;33.57;;;3.70;;
70744;SDS011;59284;31.390;34.904;2023-04-05T05:42:59;31.02;;;3.60;;
70744;SDS011;59284;31.390;34.904;2023-04-05T05:45:25;26.07;;;3.53;;
70744;SDS011;59284;31.390;34.904;2023-04-05T05:47:51;27.40;;;3.53;;
70744;SDS011;59284;31.390;34.904;2023-04-05T05:50:17;27.70;;;3.17;;
70744;SDS011;59284;31.390;34.904;2023-04-05T05:52:44;25.85;;;3.05;;
70744;SDS011;59284;31.390;34.904;2023-04-05T05:55:10;30.73;;;3.58;;
70744;SDS011;59284;31.390;34.904;2023-04-05T05:57:36;45.53;;;4.03;;
70744;SDS011;59284;31.390;34.904;2023-04-05T06:00:03;29.65;;;4.45;;
70744;SDS011;59284;31.390;34.904;2023-04-05T06:02:33;29.15;;;4.03;;
70744;SDS011;59284;31.390;34.904;2023-04-05T06:04:59;25.60;;;4.28;;
70744;SDS011;59284;31.390;34.904;2023-04-05T06:07:27;28.20;;;4.03;;
70744;SDS011;59284;31.390;34.904;2023-04-05T06:09:52;35.88;;;3.45;;
70744;SDS011;59284;31.390;34.904;2023-04-05T06:12:21;29.70;;;3.25;;
70744;SDS011;59284;31.390;34.904;2023-04-05T06:14:47;25.10;;;2.67;;
70744;SDS011;59284;31.390;34.904;2023-04-05T06:17:13;32.65;;;3.38;;
70744;SDS011;59284;31.390;34.904;2023-04-05T06:19:39;23.30;;;2.70;;
70744;SDS011;59284;31.390;34.904;2023-04-05T06:22:05;45.40;;;4.00;;
70744;SDS011;59284;31.390;34.904;2023-04-05T06:24:30;27.48;;;3.63;;
70744;SDS011;59284;31.390;34.904;2023-04-05T06:26:57;25.33;;;3.27;;
70744;SDS011;59284;31.390;34.904;2023-04-05T06:29:23;26.80;;;2.35;;
70744;SDS011;59284;31.390;34.904;2023-04-05T06:31:49;30.83;;;3.92;;
70744;SDS011;59284;31.390;34.904;2023-04-05T06:34:15;21.50;;;2.40;;
70744;SDS011;59284;31.390;34.904;2023-04-05T06:36:40;26.47;;;3.30;;
70744;SDS011;59284;31.390;34.904;2023-04-05T06:39:07;26.60;;;2.75;;
70744;SDS011;59284;31.390;34.904;2023-04-05T06:41:32;27.25;;;2.90;;
70744;SDS011;59284;31.390;34.904;2023-04-05T06:43:58;24.00;;;3.13;;
70744;SDS011;59284;31.390;34.904;2023-04-05T06:46:24;36.78;;;3.33;;
70744;SDS011;59284;31.390;34.904;2023-04-05T06:48:50;26.52;;;3.58;;
70744;SDS011;59284;31.390;34.904;2023-04-05T06:51:16;28.80;;;3.20;;
70744;SDS011;59284;31.390;34.904;2023-04-05T06:53:43;27.80;;;3.33;;
70744;SDS011;59284;31.390;34.904;2023-04-05T06:56:09;27.73;;;3.00;;
70744;SDS011;59284;31.390;34.904;2023-04-05T06:58:35;25.67;;;3.17;;
70744;SDS011;59284;31.390;34.904;2023-04-05T07:01:01;26.50;;;3.40;;
70744;SDS011;59284;31.390;34.904;2023-04-05T07:03:27;31.17;;;3.78;;
70744;SDS011;59284;31.390;34.904;2023-04-05T07:05:53;31.63;;;3.93;;
70744;SDS011;59284;31.390;34.904;2023-04-05T07:08:21;22.27;;;3.08;;
70744;SDS011;59284;31.390;34.904;2023-04-05T07:10:47;30.08;;;3.22;;
70744;SDS011;59284;31.390;34.904;2023-04-05T07:13:13;28.70;;;3.25;;
70744;SDS011;59284;31.390;34.904;2023-04-05T07:15:39;22.30;;;2.45;;
70744;SDS011;59284;31.390;34.904;2023-04-05T07:18:06;25.73;;;3.00;;
70744;SDS011;59284;31.390;34.904;2023-04-05T07:20:32;30.73;;;4.40;;
70744;SDS011;59284;31.390;34.904;2023-04-05T07:22:58;16.45;;;2.65;;
70744;SDS011;59284;31.390;34.904;2023-04-05T07:25:23;29.97;;;3.83;;
70744;SDS011;59284;31.390;34.904;2023-04-05T07:27:49;31.92;;;3.38;;
70744;SDS011;59284;31.390;34.904;2023-04-05T07:30:16;29.70;;;3.40;;
70744;SDS011;59284;31.390;34.904;2023-04-05T07:32:42;34.67;;;3.35;;
70744;SDS011;59284;31.390;34.904;2023-04-05T07:35:08;38.37;;;4.13;;
70744;SDS011;59284;31.390;34.904;2023-04-05T07:37:34;24.33;;;3.53;;
70744;SDS011;59284;31.390;34.904;2023-04-05T07:40:02;26.77;;;3.50;;
70744;SDS011;59284;31.390;34.904;2023-04-05T07:42:30;49.95;;;4.68;;
70744;SDS011;59284;31.390;34.904;2023-04-05T07:44:56;39.20;;;3.70;;
70744;SDS011;59284;31.390;34.904;2023-04-05T07:47:22;48.55;;;4.03;;
70744;SDS011;59284;31.390;34.904;2023-04-05T07:49:48;54.83;;;5.43;;
70744;SDS011;59284;31.390;34.904;2023-04-05T07:52:13;29.90;;;3.70;;
70744;SDS011;59284;31.390;34.904;2023-04-05T07:54:39;36.63;;;4.00;;
70744;SDS011;59284;31.390;34.904;2023-04-05T07:57:07;32.33;;;4.28;;
70744;SDS011;59284;31.390;34.904;2023-04-05T07:59:34;37.17;;;5.32;;
70744;SDS011;59284;31.390;34.904;2023-04-05T08:02:01;31.77;;;6.47;;
70744;SDS011;59284;31.390;34.904;2023-04-05T08:04:27;43.17;;;5.90;;
70744;SDS011;59284;31.390;34.904;2023-04-05T08:06:53;46.00;;;4.78;;
70744;SDS011;59284;31.390;34.904;2023-04-05T08:09:18;40.90;;;4.60;;
70744;SDS011;59284;31.390;34.904;2023-04-05T08:11:44;38.00;;;4.22;;
70744;SDS011;59284;31.390;34.904;2023-04-05T08:14:10;41.45;;;4.10;;
70744;SDS011;59284;31.390;34.904;2023-04-05T08:16:36;43.33;;;4.33;;
70744;SDS011;59284;31.390;34.904;2023-04-05T08:19:01;30.65;;;3.17;;
70744;SDS011;59284;31.390;34.904;2023-04-05T08:21:27;37.03;;;3.73;;
70744;SDS011;59284;31.390;34.904;2023-04-05T08:23:56;34.75;;;4.35;;
70744;SDS011;59284;31.390;34.904;2023-04-05T08:26:22;41.50;;;4.25;;
70744;SDS011;59284;31.390;34.904;2023-04-05T08:28:48;36.87;;;4.30;;
70744;SDS011;59284;31.390;34.904;2023-04-05T08:31:14;47.37;;;5.93;;
70744;SDS011;59284;31.390;34.904;2023-04-05T08:33:39;74.03;;;6.57;;
70744;SDS011;59284;31.390;34.904;2023-04-05T08:36:05;68.83;;;5.47;;
70744;SDS011;59284;31.390;34.904;2023-04-05T08:38:32;72.57;;;7.57;;
70744;SDS011;59284;31.390;34.904;2023-04-05T08:41:13;49.30;;;5.82;;
70744;SDS011;59284;31.390;34.904;2023-04-05T08:43:57;39.33;;;3.67;;
70744;SDS011;59284;31.390;34.904;2023-04-05T08:46:28;46.50;;;4.55;;
70744;SDS011;59284;31.390;34.904;2023-04-05T08:48:56;29.23;;;4.10;;
70744;SDS011;59284;31.390;34.904;2023-04-05T08:51:22;36.10;;;4.68;;
70744;SDS011;59284;31.390;34.904;2023-04-05T08:53:49;46.90;;;4.10;;
70744;SDS011;59284;31.390;34.904;2023-04-05T08:56:18;56.30;;;5.07;;
70744;SDS011;59284;31.390;34.904;2023-04-05T08:59:07;43.25;;;4.32;;
70744;SDS011;59284;31.390;34.904;2023-04-05T09:01:40;35.27;;;4.07;;
70744;SDS011;59284;31.390;34.904;2023-04-05T09:04:22;30.38;;;4.15;;
70744;SDS011;59284;31.390;34.904;2023-04-05T09:06:51;32.53;;;3.33;;
70744;SDS011;59284;31.390;34.904;2023-04-05T09:09:17;34.45;;;4.70;;
70744;SDS011;59284;31.390;34.904;2023-04-05T09:11:45;35.22;;;3.63;;
70744;SDS011;59284;31.390;34.904;2023-04-05T09:14:11;22.60;;;4.80;;
70744;SDS011;59284;31.390;34.904;2023-04-05T09:16:37;49.03;;;4.25;;
70744;SDS011;59284;31.390;34.904;2023-04-05T09:19:04;43.45;;;4.47;;
70744;SDS011;59284;31.390;34.904;2023-04-05T09:21:56;38.40;;;4.30;;
70744;SDS011;59284;31.390;34.904;2023-04-05T09:24:29;39.53;;;3.78;;
70744;SDS011;59284;31.390;34.904;2023-04-05T09:27:03;39.08;;;4.63;;
70744;SDS011;59284;31.390;34.904;2023-04-05T09:29:30;45.90;;;4.53;;
70744;SDS011;59284;31.390;34.904;2023-04-05T09:31:56;36.73;;;3.93;;
70744;SDS011;59284;31.390;34.904;2023-04-05T09:34:21;27.58;;;3.00;;
70744;SDS011;59284;31.390;34.904;2023-04-05T09:36:48;35.80;;;4.25;;
70744;SDS011;59284;31.390;34.904;2023-04-05T09:39:14;36.30;;;4.37;;
70744;SDS011;59284;31.390;34.904;2023-04-05T09:41:49;24.35;;;5.00;;
70744;SDS011;59284;31.390;34.904;2023-04-05T09:47:15;27.23;;;3.38;;
70744;SDS011;59284;31.390;34.904;2023-04-05T09:49:42;33.13;;;3.65;;
70744;SDS011;59284;31.390;34.904;2023-04-05T09:52:22;36.33;;;4.40;;
70744;SDS011;59284;31.390;34.904;2023-04-05T09:54:55;43.65;;;4.88;;
70744;SDS011;59284;31.390;34.904;2023-04-05T09:57:26;27.15;;;3.95;;
70744;SDS011;59284;31.390;34.904;2023-04-05T09:59:57;41.25;;;4.13;;
70744;SDS011;59284;31.390;34.904;2023-04-05T10:02:23;45.23;;;3.80;;
70744;SDS011;59284;31.390;34.904;2023-04-05T10:05:12;39.45;;;4.55;;
70744;SDS011;59284;31.390;34.904;2023-04-05T10:07:46;19.98;;;3.03;;
70744;SDS011;59284;31.390;34.904;2023-04-05T10:10:12;30.33;;;2.80;;
70744;SDS011;59284;31.390;34.904;2023-04-05T10:12:40;29.85;;;3.03;;
70744;SDS011;59284;31.390;34.904;2023-04-05T10:15:09;22.63;;;2.85;;
70744;SDS011;59284;31.390;34.904;2023-04-05T10:17:38;23.20;;;3.13;;
70744;SDS011;59284;31.390;34.904;2023-04-05T10:20:24;25.15;;;3.35;;
70744;SDS011;59284;31.390;34.904;2023-04-05T10:26:16;29.15;;;2.75;;
70744;SDS011;59284;31.390;34.904;2023-04-05T10:28:50;24.75;;;3.92;;
70744;SDS011;59284;31.390;34.904;2023-04-05T10:41:35;32.78;;;3.65;;
70744;SDS011;59284;31.390;34.904;2023-04-05T10:44:11;28.30;;;2.85;;
70744;SDS011;59284;31.390;34.904;2023-04-05T10:46:38;20.80;;;2.80;;
70744;SDS011;59284;31.390;34.904;2023-04-05T10:49:08;23.25;;;2.40;;
70744;SDS011;59284;31.390;34.904;2023-04-05T10:51:41;26.00;;;2.85;;
70744;SDS011;59284;31.390;34.904;2023-04-05T10:54:08;32.47;;;3.22;;
70744;SDS011;59284;31.390;34.904;2023-04-05T10:56:35;23.63;;;3.22;;
70744;SDS011;59284;31.390;34.904;2023-04-05T10:59:01;20.37;;;3.83;;
70744;SDS011;59284;31.390;34.904;2023-04-05T11:01:28;24.75;;;2.92;;
70744;SDS011;59284;31.390;34.904;2023-04-05T11:03:54;23.25;;;2.72;;
70744;SDS011;59284;31.390;34.904;2023-04-05T11:06:29;21.05;;;3.20;;
70744;SDS011;59284;31.390;34.904;2023-04-05T11:09:38;26.65;;;2.45;;
70744;SDS011;59284;31.390;34.904;2023-04-05T11:11:46;24.57;;;3.00;;
70744;SDS011;59284;31.390;34.904;2023-04-05T11:17:25;27.65;;;4.20;;
70744;SDS011;59284;31.390;34.904;2023-04-05T11:20:03;31.83;;;9.57;;
70744;SDS011;59284;31.390;34.904;2023-04-05T11:22:29;28.20;;;8.63;;
70744;SDS011;59284;31.390;34.904;2023-04-05T11:25:02;34.33;;;15.67;;
70744;SDS011;59284;31.390;34.904;2023-04-05T11:27:59;39.42;;;12.65;;
70744;SDS011;59284;31.390;34.904;2023-04-05T11:36:00;25.20;;;3.80;;
70744;SDS011;59284;31.390;34.904;2023-04-05T11:38:27;21.23;;;3.03;;
70744;SDS011;59284;31.390;34.904;2023-04-05T11:41:03;22.48;;;3.25;;
70744;SDS011;59284;31.390;34.904;2023-04-05T11:43:30;25.90;;;4.00;;
70744;SDS011;59284;31.390;34.904;2023-04-05T11:46:00;23.93;;;2.90;;
70744;SDS011;59284;31.390;34.904;2023-04-05T11:48:28;30.27;;;3.40;;
70744;SDS011;59284;31.390;34.904;2023-04-05T11:50:54;23.65;;;3.85;;
70744;SDS011;59284;31.390;34.904;2023-04-05T11:53:21;20.02;;;2.15;;
70744;SDS011;59284;31.390;34.904;2023-04-05T11:55:47;25.77;;;2.30;;
70744;SDS011;59284;31.390;34.904;2023-04-05T11:58:16;20.95;;;2.40;;
70744;SDS011;59284;31.390;34.904;2023-04-05T12:00:43;37.75;;;2.70;;
70744;SDS011;59284;31.390;34.904;2023-04-05T12:03:10;19.60;;;2.45;;
70744;SDS011;59284;31.390;34.904;2023-04-05T12:05:52;26.30;;;4.03;;
70744;SDS011;59284;31.390;34.904;2023-04-05T12:08:19;24.37;;;3.60;;
70744;SDS011;59284;31.390;34.904;2023-04-05T12:10:52;23.55;;;2.92;;
70744;SDS011;59284;31.390;34.904;2023-04-05T12:13:29;30.27;;;4.32;;
70744;SDS011;59284;31.390;34.904;2023-04-05T12:16:03;25.90;;;3.38;;
70744;SDS011;59284;31.390;34.904;2023-04-05T12:18:33;26.90;;;3.28;;
70744;SDS011;59284;31.390;34.904;2023-04-05T12:21:00;38.90;;;3.20;;
70744;SDS011;59284;31.390;34.904;2023-04-05T12:23:27;25.23;;;2.88;;
70744;SDS011;59284;31.390;34.904;2023-04-05T12:25:53;39.13;;;3.20;;
70744;SDS011;59284;31.390;34.904;2023-04-05T12:28:21;27.88;;;3.00;;
70744;SDS011;59284;31.390;34.904;2023-04-05T12:30:50;27.80;;;3.80;;
70744;SDS011;59284;31.390;34.904;2023-04-05T12:33:32;34.90;;;3.75;;
70744;SDS011;59284;31.390;34.904;2023-04-05T12:36:03;31.30;;;4.20;;
70744;SDS011;59284;31.390;34.904;2023-04-05T12:38:29;26.13;;;3.10;;
70744;SDS011;59284;31.390;34.904;2023-04-05T12:40:59;15.33;;;2.47;;
70744;SDS011;59284;31.390;34.904;2023-04-05T12:43:36;32.65;;;3.80;;
70744;SDS011;59284;31.390;34.904;2023-04-05T12:46:05;32.08;;;3.95;;
70744;SDS011;59284;31.390;34.904;2023-04-05T12:48:33;25.38;;;2.97;;
70744;SDS011;59284;31.390;34.904;2023-04-05T12:51:05;23.17;;;2.70;;
70744;SDS011;59284;31.390;34.904;2023-04-05T12:53:43;22.20;;;2.73;;
70744;SDS011;59284;31.390;34.904;2023-04-05T12:56:16;28.38;;;2.67;;
70744;SDS011;59284;31.390;34.904;2023-04-05T12:58:41;25.60;;;3.35;;
70744;SDS011;59284;31.390;34.904;2023-04-05T13:01:07;27.23;;;3.03;;
70744;SDS011;59284;31.390;34.904;2023-04-05T13:03:34;50.78;;;5.00;;
70744;SDS011;59284;31.390;34.904;2023-04-05T13:06:00;36.47;;;3.75;;
70744;SDS011;59284;31.390;34.904;2023-04-05T13:08:25;33.80;;;2.87;;
70744;SDS011;59284;31.390;34.904;2023-04-05T13:10:51;23.27;;;3.00;;
70744;SDS011;59284;31.390;34.904;2023-04-05T13:13:18;42.38;;;4.55;;
70744;SDS011;59284;31.390;34.904;2023-04-05T13:15:46;38.90;;;3.78;;
70744;SDS011;59284;31.390;34.904;2023-04-05T13:18:12;36.20;;;4.20;;
70744;SDS011;59284;31.390;34.904;2023-04-05T13:20:42;37.92;;;3.00;;
70744;SDS011;59284;31.390;34.904;2023-04-05T13:23:08;38.33;;;4.13;;
70744;SDS011;59284;31.390;34.904;2023-04-05T13:25:39;34.38;;;3.28;;
70744;SDS011;59284;31.390;34.904;2023-04-05T13:28:06;32.63;;;3.33;;
70744;SDS011;59284;31.390;34.904;2023-04-05T13:30:32;31.25;;;3.50;;
70744;SDS011;59284;31.390;34.904;2023-04-05T13:32:58;27.13;;;3.47;;
70744;SDS011;59284;31.390;34.904;2023-04-05T13:35:24;32.80;;;4.32;;
70744;SDS011;59284;31.390;34.904;2023-04-05T13:37:50;26.03;;;2.90;;
70744;SDS011;59284;31.390;34.904;2023-04-05T13:40:15;46.25;;;5.88;;
70744;SDS011;59284;31.390;34.904;2023-04-05T13:42:41;30.02;;;3.38;;
70744;SDS011;59284;31.390;34.904;2023-04-05T13:45:07;29.03;;;2.33;;
70744;SDS011;59284;31.390;34.904;2023-04-05T13:47:33;31.98;;;2.80;;
70744;SDS011;59284;31.390;34.904;2023-04-05T13:49:59;33.58;;;3.38;;
70744;SDS011;59284;31.390;34.904;2023-04-05T13:52:26;29.20;;;3.10;;
70744;SDS011;59284;31.390;34.904;2023-04-05T13:54:53;30.70;;;3.50;;
70744;SDS011;59284;31.390;34.904;2023-04-05T13:57:18;32.67;;;3.33;;
70744;SDS011;59284;31.390;34.904;2023-04-05T13:59:44;23.38;;;3.78;;
70744;SDS011;59284;31.390;34.904;2023-04-05T14:02:10;33.57;;;4.47;;
70744;SDS011;59284;31.390;34.904;2023-04-05T14:04:39;25.47;;;3.57;;
70744;SDS011;59284;31.390;34.904;2023-04-05T14:07:05;24.63;;;2.95;;
70744;SDS011;59284;31.390;34.904;2023-04-05T14:09:32;29.02;;;4.75;;
70744;SDS011;59284;31.390;34.904;2023-04-05T14:11:58;29.27;;;3.22;;
70744;SDS011;59284;31.390;34.904;2023-04-05T14:14:26;37.33;;;4.10;;
70744;SDS011;59284;31.390;34.904;2023-04-05T14:16:52;30.48;;;2.88;;
70744;SDS011;59284;31.390;34.904;2023-04-05T14:19:18;24.50;;;2.90;;
70744;SDS011;59284;31.390;34.904;2023-04-05T14:21:44;21.37;;;3.23;;
70744;SDS011;59284;31.390;34.904;2023-04-05T14:24:11;27.15;;;2.90;;
70744;SDS011;59284;31.390;34.904;2023-04-05T14:26:37;27.20;;;3.35;;
70744;SDS011;59284;31.390;34.904;2023-04-05T14:29:03;23.63;;;2.55;;
70744;SDS011;59284;31.390;34.904;2023-04-05T14:31:28;34.77;;;3.53;;
70744;SDS011;59284;31.390;34.904;2023-04-05T14:33:54;29.23;;;3.22;;
70744;SDS011;59284;31.390;34.904;2023-04-05T14:36:20;24.85;;;2.97;;
70744;SDS011;59284;31.390;34.904;2023-04-05T14:38:46;29.67;;;2.90;;
70744;SDS011;59284;31.390;34.904;2023-04-05T14:41:12;26.55;;;3.03;;
70744;SDS011;59284;31.390;34.904;2023-04-05T14:43:38;26.15;;;3.17;;
70744;SDS011;59284;31.390;34.904;2023-04-05T14:46:04;18.37;;;2.50;;
70744;SDS011;59284;31.390;34.904;2023-04-05T14:48:29;20.83;;;2.97;;
70744;SDS011;59284;31.390;34.904;2023-04-05T14:50:56;22.75;;;3.17;;
70744;SDS011;59284;31.390;34.904;2023-04-05T14:53:23;28.08;;;4.30;;
70744;SDS011;59284;31.390;34.904;2023-04-05T14:55:49;23.27;;;3.45;;
70744;SDS011;59284;31.390;34.904;2023-04-05T14:58:15;18.30;;;3.50;;
70744;SDS011;59284;31.390;34.904;2023-04-05T15:00:41;24.48;;;3.63;;
70744;SDS011;59284;31.390;34.904;2023-04-05T15:03:08;26.38;;;3.22;;
70744;SDS011;59284;31.390;34.904;2023-04-05T15:05:34;24.03;;;2.87;;